Woodlawn, IL (62898)

11:50 PM CDT on March 29, 2015 (GMT -0500)
Centralia Municipal | | Change Station
CLOSE
Current Station
Airport
Location: Centralia,
Elevation: 535 ft
Nearby Weather Stations

Elev 535 ft 38.52 °N, 89.09 °W | Updated 15 minutes ago

Overcast
Overcast
48 °F
Feels Like 48 °F
N
7
Wind Variable Wind from SW

Today
High -- | Low -- °F
--% Chance of Precip.
Yesterday
High -- | Low -- °F
Precip. -- in
6:46 AM 7:16 PM
Waxing Gibbous, 77% visible
Pressure 30.08 in
Visibility 10.0 miles
Clouds Scattered Clouds 4900 ft
Overcast 5500 ft
Dew Point 40 °F
Humidity 75%
Rainfall 0.00 in
Snow Depth Not available.
UV 0 out of 12
Pollen 10.20 out of 12
Air Quality Not available.
Flu Activity Not available.
METAR KENL 300435Z AUTO 23006KT 10SM SCT049 OVC055 09/05 A3008 RMK AO2 T00900047

More Conditions Fewer Conditions

Pressure 30.08 in
Visibility 10.0 miles
Clouds Scattered Clouds 4900 ft
Overcast 5500 ft
Dew Point 40 °F
Humidity 75%
Rainfall 0.00 in
Snow Depth Not available.
UV 0 out of 12
Pollen 10.20 out of 12
Air Quality Not available.
Flu Activity Not available.
METAR KENL 300435Z AUTO 23006KT 10SM SCT049 OVC055 09/05 A3008 RMK AO2 T00900047

More Conditions Fewer Conditions

10-Day Weather Forecast

Almanac

Astronomy

Mar. 29, 2015 Rise Set
Actual Time
Civil Twilight
Nautical Twilight
Astronomical Twilight
Moon
Length of Visible Light
Length of Day
Tomorrow will be .
, % of the Moon is Illuminated

Today's Extremes

State Highs State Lows

Community

WunderPhotos

Upload Photos

1,809,436 photos uploaded!

WunderBlogs® & News

Nearby

Air Quality

  Air Quality AQ Index Pollutant
Not available.

Snow Depth

Station Depth Elevation

Earthquake Activity

City Distance Mag. Time & Date
Minimum magnitude displayed is 2.5.

Coastal Water Temperatures

Place Temperature

Stations

Nearby Weather Stations

Station Location Temp. Windchill Dew Point Humidity Wind Precip. Elev Updated Type